sensor_id;sensor_type;location;lat;lon;timestamp;P1;durP1;ratioP1;P2;durP2;ratioP2
3597;SDS011;1813;52.016;8.714;2022-10-16T00:01:31;9.23;;;6.10;;
3597;SDS011;1813;52.016;8.714;2022-10-16T00:04:04;7.27;;;5.30;;
3597;SDS011;1813;52.016;8.714;2022-10-16T00:06:36;6.67;;;6.00;;
3597;SDS011;1813;52.016;8.714;2022-10-16T00:09:07;8.10;;;5.80;;
3597;SDS011;1813;52.016;8.714;2022-10-16T00:11:41;15.50;;;5.70;;
3597;SDS011;1813;52.016;8.714;2022-10-16T00:14:14;8.50;;;5.73;;
3597;SDS011;1813;52.016;8.714;2022-10-16T00:16:48;10.80;;;6.00;;
3597;SDS011;1813;52.016;8.714;2022-10-16T00:19:20;7.63;;;5.40;;
3597;SDS011;1813;52.016;8.714;2022-10-16T00:21:52;11.40;;;5.83;;
3597;SDS011;1813;52.016;8.714;2022-10-16T00:24:24;13.70;;;5.50;;
3597;SDS011;1813;52.016;8.714;2022-10-16T00:26:55;11.60;;;6.20;;
3597;SDS011;1813;52.016;8.714;2022-10-16T00:29:27;12.00;;;5.70;;
3597;SDS011;1813;52.016;8.714;2022-10-16T00:32:01;13.27;;;5.77;;
3597;SDS011;1813;52.016;8.714;2022-10-16T00:34:33;8.97;;;6.20;;
3597;SDS011;1813;52.016;8.714;2022-10-16T00:37:04;8.07;;;5.87;;
3597;SDS011;1813;52.016;8.714;2022-10-16T00:39:36;9.80;;;5.70;;
3597;SDS011;1813;52.016;8.714;2022-10-16T00:42:09;9.07;;;6.10;;
3597;SDS011;1813;52.016;8.714;2022-10-16T00:44:47;11.47;;;6.20;;
3597;SDS011;1813;52.016;8.714;2022-10-16T00:47:24;14.83;;;6.10;;
3597;SDS011;1813;52.016;8.714;2022-10-16T00:50:00;17.07;;;6.10;;
3597;SDS011;1813;52.016;8.714;2022-10-16T00:52:39;12.80;;;5.80;;
3597;SDS011;1813;52.016;8.714;2022-10-16T00:55:14;11.10;;;5.50;;
3597;SDS011;1813;52.016;8.714;2022-10-16T00:57:47;11.43;;;6.10;;
3597;SDS011;1813;52.016;8.714;2022-10-16T01:00:21;14.93;;;6.20;;
3597;SDS011;1813;52.016;8.714;2022-10-16T01:02:57;11.10;;;5.93;;
3597;SDS011;1813;52.016;8.714;2022-10-16T01:05:34;12.20;;;6.80;;
3597;SDS011;1813;52.016;8.714;2022-10-16T01:08:12;9.13;;;5.80;;
3597;SDS011;1813;52.016;8.714;2022-10-16T01:10:52;13.83;;;6.70;;
3597;SDS011;1813;52.016;8.714;2022-10-16T01:13:30;9.10;;;6.50;;
3597;SDS011;1813;52.016;8.714;2022-10-16T01:16:06;13.03;;;7.40;;
3597;SDS011;1813;52.016;8.714;2022-10-16T01:18:46;10.03;;;6.37;;
3597;SDS011;1813;52.016;8.714;2022-10-16T01:21:23;11.63;;;6.87;;
3597;SDS011;1813;52.016;8.714;2022-10-16T01:24:02;14.30;;;8.07;;
3597;SDS011;1813;52.016;8.714;2022-10-16T01:26:44;16.70;;;7.47;;
3597;SDS011;1813;52.016;8.714;2022-10-16T01:29:26;17.90;;;7.30;;
3597;SDS011;1813;52.016;8.714;2022-10-16T01:32:05;11.00;;;6.90;;
3597;SDS011;1813;52.016;8.714;2022-10-16T01:34:45;11.80;;;7.30;;
3597;SDS011;1813;52.016;8.714;2022-10-16T01:37:25;13.33;;;7.90;;
3597;SDS011;1813;52.016;8.714;2022-10-16T01:40:05;10.23;;;7.00;;
3597;SDS011;1813;52.016;8.714;2022-10-16T01:42:39;18.23;;;7.90;;
3597;SDS011;1813;52.016;8.714;2022-10-16T01:45:15;11.50;;;7.80;;
3597;SDS011;1813;52.016;8.714;2022-10-16T01:47:50;17.60;;;7.50;;
3597;SDS011;1813;52.016;8.714;2022-10-16T01:50:24;11.23;;;7.20;;
3597;SDS011;1813;52.016;8.714;2022-10-16T01:52:58;12.43;;;7.33;;
3597;SDS011;1813;52.016;8.714;2022-10-16T01:55:32;12.00;;;7.10;;
3597;SDS011;1813;52.016;8.714;2022-10-16T01:58:08;13.37;;;7.70;;
3597;SDS011;1813;52.016;8.714;2022-10-16T02:00:43;9.57;;;7.00;;
3597;SDS011;1813;52.016;8.714;2022-10-16T02:03:18;13.07;;;6.57;;
3597;SDS011;1813;52.016;8.714;2022-10-16T02:05:52;13.60;;;6.40;;
3597;SDS011;1813;52.016;8.714;2022-10-16T02:08:27;15.17;;;6.13;;
3597;SDS011;1813;52.016;8.714;2022-10-16T02:11:01;8.93;;;6.20;;
3597;SDS011;1813;52.016;8.714;2022-10-16T02:13:35;9.90;;;5.57;;
3597;SDS011;1813;52.016;8.714;2022-10-16T02:16:12;7.13;;;5.30;;
3597;SDS011;1813;52.016;8.714;2022-10-16T02:18:45;7.37;;;5.07;;
3597;SDS011;1813;52.016;8.714;2022-10-16T02:21:18;7.90;;;5.40;;
3597;SDS011;1813;52.016;8.714;2022-10-16T02:23:55;6.33;;;5.20;;
3597;SDS011;1813;52.016;8.714;2022-10-16T02:26:35;6.77;;;4.87;;
3597;SDS011;1813;52.016;8.714;2022-10-16T02:29:14;11.80;;;4.43;;
3597;SDS011;1813;52.016;8.714;2022-10-16T02:31:52;9.03;;;4.43;;
3597;SDS011;1813;52.016;8.714;2022-10-16T02:34:26;4.73;;;4.23;;
3597;SDS011;1813;52.016;8.714;2022-10-16T02:37:01;7.00;;;4.30;;
3597;SDS011;1813;52.016;8.714;2022-10-16T02:39:35;7.23;;;4.17;;
3597;SDS011;1813;52.016;8.714;2022-10-16T02:42:09;7.60;;;3.97;;
3597;SDS011;1813;52.016;8.714;2022-10-16T02:44:42;13.10;;;3.90;;
3597;SDS011;1813;52.016;8.714;2022-10-16T02:47:16;7.63;;;4.20;;
3597;SDS011;1813;52.016;8.714;2022-10-16T02:49:47;7.30;;;4.03;;
3597;SDS011;1813;52.016;8.714;2022-10-16T02:52:19;6.47;;;4.63;;
3597;SDS011;1813;52.016;8.714;2022-10-16T02:54:51;8.97;;;4.50;;
3597;SDS011;1813;52.016;8.714;2022-10-16T02:57:23;9.37;;;4.60;;
3597;SDS011;1813;52.016;8.714;2022-10-16T02:59:55;6.80;;;4.47;;
3597;SDS011;1813;52.016;8.714;2022-10-16T03:02:28;10.80;;;4.70;;
3597;SDS011;1813;52.016;8.714;2022-10-16T03:05:00;6.30;;;4.63;;
3597;SDS011;1813;52.016;8.714;2022-10-16T03:07:32;6.40;;;4.40;;
3597;SDS011;1813;52.016;8.714;2022-10-16T03:10:04;8.00;;;4.60;;
3597;SDS011;1813;52.016;8.714;2022-10-16T03:12:37;6.50;;;4.23;;
3597;SDS011;1813;52.016;8.714;2022-10-16T03:15:09;5.40;;;4.20;;
3597;SDS011;1813;52.016;8.714;2022-10-16T03:17:42;7.30;;;3.93;;
3597;SDS011;1813;52.016;8.714;2022-10-16T03:20:14;6.63;;;3.63;;
3597;SDS011;1813;52.016;8.714;2022-10-16T03:22:46;6.27;;;3.80;;
3597;SDS011;1813;52.016;8.714;2022-10-16T03:25:18;5.63;;;3.33;;
3597;SDS011;1813;52.016;8.714;2022-10-16T03:27:50;13.80;;;4.17;;
3597;SDS011;1813;52.016;8.714;2022-10-16T03:30:22;3.43;;;3.13;;
3597;SDS011;1813;52.016;8.714;2022-10-16T03:32:55;5.87;;;3.60;;
3597;SDS011;1813;52.016;8.714;2022-10-16T03:35:27;9.00;;;3.20;;
3597;SDS011;1813;52.016;8.714;2022-10-16T03:38:00;4.40;;;3.20;;
3597;SDS011;1813;52.016;8.714;2022-10-16T03:40:32;6.63;;;3.10;;
3597;SDS011;1813;52.016;8.714;2022-10-16T03:43:04;6.87;;;3.30;;
3597;SDS011;1813;52.016;8.714;2022-10-16T03:45:35;7.13;;;3.30;;
3597;SDS011;1813;52.016;8.714;2022-10-16T03:48:09;5.20;;;3.40;;
3597;SDS011;1813;52.016;8.714;2022-10-16T03:50:41;5.47;;;3.07;;
3597;SDS011;1813;52.016;8.714;2022-10-16T03:53:12;5.93;;;3.23;;
3597;SDS011;1813;52.016;8.714;2022-10-16T03:55:45;4.43;;;2.90;;
3597;SDS011;1813;52.016;8.714;2022-10-16T03:58:17;9.03;;;3.10;;
3597;SDS011;1813;52.016;8.714;2022-10-16T04:00:50;10.70;;;3.50;;
3597;SDS011;1813;52.016;8.714;2022-10-16T04:03:24;5.17;;;2.57;;
3597;SDS011;1813;52.016;8.714;2022-10-16T04:05:56;5.63;;;3.13;;
3597;SDS011;1813;52.016;8.714;2022-10-16T04:08:27;10.63;;;3.00;;
3597;SDS011;1813;52.016;8.714;2022-10-16T04:10:59;3.10;;;2.80;;
3597;SDS011;1813;52.016;8.714;2022-10-16T04:13:31;3.37;;;2.97;;
3597;SDS011;1813;52.016;8.714;2022-10-16T04:16:03;3.90;;;2.97;;
3597;SDS011;1813;52.016;8.714;2022-10-16T04:18:37;6.77;;;3.27;;
3597;SDS011;1813;52.016;8.714;2022-10-16T04:21:09;5.40;;;3.00;;
3597;SDS011;1813;52.016;8.714;2022-10-16T04:23:41;4.63;;;2.73;;
3597;SDS011;1813;52.016;8.714;2022-10-16T04:26:13;4.73;;;2.50;;
3597;SDS011;1813;52.016;8.714;2022-10-16T04:28:45;9.33;;;2.80;;
3597;SDS011;1813;52.016;8.714;2022-10-16T04:31:17;10.03;;;3.40;;
3597;SDS011;1813;52.016;8.714;2022-10-16T04:33:50;5.13;;;2.57;;
3597;SDS011;1813;52.016;8.714;2022-10-16T04:36:22;5.00;;;2.50;;
3597;SDS011;1813;52.016;8.714;2022-10-16T04:38:54;5.40;;;2.60;;
3597;SDS011;1813;52.016;8.714;2022-10-16T04:41:26;6.10;;;2.70;;
3597;SDS011;1813;52.016;8.714;2022-10-16T04:43:58;7.13;;;2.50;;
3597;SDS011;1813;52.016;8.714;2022-10-16T04:46:30;3.40;;;2.60;;
3597;SDS011;1813;52.016;8.714;2022-10-16T04:49:03;3.47;;;2.60;;
3597;SDS011;1813;52.016;8.714;2022-10-16T04:51:35;4.67;;;2.40;;
3597;SDS011;1813;52.016;8.714;2022-10-16T04:54:08;4.90;;;2.80;;
3597;SDS011;1813;52.016;8.714;2022-10-16T04:56:40;5.30;;;2.90;;
3597;SDS011;1813;52.016;8.714;2022-10-16T04:59:17;8.17;;;2.50;;
3597;SDS011;1813;52.016;8.714;2022-10-16T05:01:50;3.67;;;2.50;;
3597;SDS011;1813;52.016;8.714;2022-10-16T05:04:23;2.53;;;2.33;;
3597;SDS011;1813;52.016;8.714;2022-10-16T05:06:55;4.30;;;2.50;;
3597;SDS011;1813;52.016;8.714;2022-10-16T05:09:27;3.73;;;2.70;;
3597;SDS011;1813;52.016;8.714;2022-10-16T05:11:59;5.73;;;2.40;;
3597;SDS011;1813;52.016;8.714;2022-10-16T05:14:31;6.00;;;2.30;;
3597;SDS011;1813;52.016;8.714;2022-10-16T05:17:02;3.33;;;2.40;;
3597;SDS011;1813;52.016;8.714;2022-10-16T05:19:36;3.80;;;2.40;;
3597;SDS011;1813;52.016;8.714;2022-10-16T05:22:08;3.40;;;2.10;;
3597;SDS011;1813;52.016;8.714;2022-10-16T05:24:40;3.20;;;2.63;;
3597;SDS011;1813;52.016;8.714;2022-10-16T05:27:12;2.63;;;2.30;;
3597;SDS011;1813;52.016;8.714;2022-10-16T05:29:49;7.20;;;2.57;;
3597;SDS011;1813;52.016;8.714;2022-10-16T05:32:21;5.10;;;2.50;;
3597;SDS011;1813;52.016;8.714;2022-10-16T05:34:54;3.30;;;2.17;;
3597;SDS011;1813;52.016;8.714;2022-10-16T05:37:27;2.90;;;2.10;;
3597;SDS011;1813;52.016;8.714;2022-10-16T05:39:59;2.03;;;1.90;;
3597;SDS011;1813;52.016;8.714;2022-10-16T05:42:30;2.07;;;1.97;;
3597;SDS011;1813;52.016;8.714;2022-10-16T05:45:03;2.17;;;1.97;;
3597;SDS011;1813;52.016;8.714;2022-10-16T05:47:35;2.20;;;2.10;;
3597;SDS011;1813;52.016;8.714;2022-10-16T05:50:09;4.47;;;2.20;;
3597;SDS011;1813;52.016;8.714;2022-10-16T05:52:41;2.23;;;2.13;;
3597;SDS011;1813;52.016;8.714;2022-10-16T05:55:13;2.00;;;1.90;;
3597;SDS011;1813;52.016;8.714;2022-10-16T05:57:46;3.87;;;2.00;;
3597;SDS011;1813;52.016;8.714;2022-10-16T06:00:17;3.23;;;2.00;;
3597;SDS011;1813;52.016;8.714;2022-10-16T06:02:49;2.30;;;2.07;;
3597;SDS011;1813;52.016;8.714;2022-10-16T06:05:22;2.00;;;1.90;;
3597;SDS011;1813;52.016;8.714;2022-10-16T06:07:54;12.17;;;2.20;;
3597;SDS011;1813;52.016;8.714;2022-10-16T06:10:26;3.57;;;2.17;;
3597;SDS011;1813;52.016;8.714;2022-10-16T06:12:59;2.17;;;2.03;;
3597;SDS011;1813;52.016;8.714;2022-10-16T06:15:31;7.83;;;1.90;;
3597;SDS011;1813;52.016;8.714;2022-10-16T06:18:03;2.30;;;2.10;;
3597;SDS011;1813;52.016;8.714;2022-10-16T06:20:36;3.00;;;1.97;;
3597;SDS011;1813;52.016;8.714;2022-10-16T06:23:08;2.30;;;2.10;;
3597;SDS011;1813;52.016;8.714;2022-10-16T06:25:40;2.30;;;1.90;;
3597;SDS011;1813;52.016;8.714;2022-10-16T06:28:13;3.10;;;2.00;;
3597;SDS011;1813;52.016;8.714;2022-10-16T06:30:45;2.43;;;2.10;;
3597;SDS011;1813;52.016;8.714;2022-10-16T06:33:17;5.13;;;2.10;;
3597;SDS011;1813;52.016;8.714;2022-10-16T06:35:50;4.10;;;2.20;;
3597;SDS011;1813;52.016;8.714;2022-10-16T06:38:22;2.30;;;2.10;;
3597;SDS011;1813;52.016;8.714;2022-10-16T06:40:54;2.10;;;2.00;;
3597;SDS011;1813;52.016;8.714;2022-10-16T06:43:26;2.87;;;2.10;;
3597;SDS011;1813;52.016;8.714;2022-10-16T06:46:04;5.13;;;2.20;;
3597;SDS011;1813;52.016;8.714;2022-10-16T06:48:38;2.47;;;2.00;;
3597;SDS011;1813;52.016;8.714;2022-10-16T06:51:12;3.87;;;1.97;;
3597;SDS011;1813;52.016;8.714;2022-10-16T06:53:45;2.17;;;2.00;;
3597;SDS011;1813;52.016;8.714;2022-10-16T06:56:20;2.73;;;2.10;;
3597;SDS011;1813;52.016;8.714;2022-10-16T06:58:53;6.93;;;2.10;;
3597;SDS011;1813;52.016;8.714;2022-10-16T07:01:26;7.30;;;2.00;;
3597;SDS011;1813;52.016;8.714;2022-10-16T07:03:59;4.33;;;2.20;;
3597;SDS011;1813;52.016;8.714;2022-10-16T07:06:33;2.90;;;2.00;;
3597;SDS011;1813;52.016;8.714;2022-10-16T07:09:06;1.93;;;1.80;;
3597;SDS011;1813;52.016;8.714;2022-10-16T07:11:40;2.60;;;1.60;;
3597;SDS011;1813;52.016;8.714;2022-10-16T07:14:12;2.67;;;2.03;;
3597;SDS011;1813;52.016;8.714;2022-10-16T07:16:48;2.47;;;1.83;;
3597;SDS011;1813;52.016;8.714;2022-10-16T07:19:20;3.47;;;2.33;;
3597;SDS011;1813;52.016;8.714;2022-10-16T07:21:53;2.37;;;2.07;;
3597;SDS011;1813;52.016;8.714;2022-10-16T07:24:26;9.20;;;2.03;;
3597;SDS011;1813;52.016;8.714;2022-10-16T07:26:58;2.50;;;1.80;;
3597;SDS011;1813;52.016;8.714;2022-10-16T07:29:30;2.23;;;1.80;;
3597;SDS011;1813;52.016;8.714;2022-10-16T07:32:02;3.60;;;2.10;;
3597;SDS011;1813;52.016;8.714;2022-10-16T07:34:34;2.30;;;2.10;;
3597;SDS011;1813;52.016;8.714;2022-10-16T07:37:07;3.57;;;2.00;;
3597;SDS011;1813;52.016;8.714;2022-10-16T07:39:39;11.40;;;2.00;;
3597;SDS011;1813;52.016;8.714;2022-10-16T07:42:11;7.00;;;2.20;;
3597;SDS011;1813;52.016;8.714;2022-10-16T07:44:43;3.27;;;2.03;;
3597;SDS011;1813;52.016;8.714;2022-10-16T07:47:15;3.60;;;1.87;;
3597;SDS011;1813;52.016;8.714;2022-10-16T07:49:47;7.13;;;2.40;;
3597;SDS011;1813;52.016;8.714;2022-10-16T07:52:21;3.20;;;2.07;;
3597;SDS011;1813;52.016;8.714;2022-10-16T07:54:53;3.53;;;2.17;;
3597;SDS011;1813;52.016;8.714;2022-10-16T07:57:25;11.63;;;2.10;;
3597;SDS011;1813;52.016;8.714;2022-10-16T07:59:57;3.87;;;2.37;;
3597;SDS011;1813;52.016;8.714;2022-10-16T08:02:29;2.20;;;2.00;;
3597;SDS011;1813;52.016;8.714;2022-10-16T08:05:01;3.63;;;2.00;;
3597;SDS011;1813;52.016;8.714;2022-10-16T08:07:34;2.40;;;2.20;;
3597;SDS011;1813;52.016;8.714;2022-10-16T08:10:06;5.33;;;2.30;;
3597;SDS011;1813;52.016;8.714;2022-10-16T08:12:42;3.57;;;1.80;;
3597;SDS011;1813;52.016;8.714;2022-10-16T08:15:14;2.80;;;2.10;;
3597;SDS011;1813;52.016;8.714;2022-10-16T08:17:53;3.77;;;2.00;;
3597;SDS011;1813;52.016;8.714;2022-10-16T08:20:26;4.77;;;1.80;;
3597;SDS011;1813;52.016;8.714;2022-10-16T08:23:01;2.03;;;1.90;;
3597;SDS011;1813;52.016;8.714;2022-10-16T08:25:34;2.53;;;1.77;;
3597;SDS011;1813;52.016;8.714;2022-10-16T08:28:07;2.00;;;1.90;;
3597;SDS011;1813;52.016;8.714;2022-10-16T08:30:40;6.90;;;1.67;;
3597;SDS011;1813;52.016;8.714;2022-10-16T08:33:12;2.00;;;1.70;;
3597;SDS011;1813;52.016;8.714;2022-10-16T08:35:50;1.60;;;1.50;;
3597;SDS011;1813;52.016;8.714;2022-10-16T08:38:25;2.17;;;1.70;;
3597;SDS011;1813;52.016;8.714;2022-10-16T08:41:00;2.33;;;1.73;;
3597;SDS011;1813;52.016;8.714;2022-10-16T08:43:56;3.00;;;1.90;;
3597;SDS011;1813;52.016;8.714;2022-10-16T08:46:41;1.70;;;1.53;;
3597;SDS011;1813;52.016;8.714;2022-10-16T08:49:19;7.23;;;2.00;;
3597;SDS011;1813;52.016;8.714;2022-10-16T08:51:51;10.03;;;1.97;;
3597;SDS011;1813;52.016;8.714;2022-10-16T08:54:28;7.33;;;1.93;;
3597;SDS011;1813;52.016;8.714;2022-10-16T08:57:07;1.80;;;1.70;;
3597;SDS011;1813;52.016;8.714;2022-10-16T08:59:42;1.93;;;1.70;;
3597;SDS011;1813;52.016;8.714;2022-10-16T09:02:19;5.43;;;1.93;;
3597;SDS011;1813;52.016;8.714;2022-10-16T09:05:06;3.10;;;2.13;;
3597;SDS011;1813;52.016;8.714;2022-10-16T09:07:55;2.13;;;1.70;;
3597;SDS011;1813;52.016;8.714;2022-10-16T09:10:39;2.00;;;1.90;;
3597;SDS011;1813;52.016;8.714;2022-10-16T09:13:22;2.17;;;1.80;;
3597;SDS011;1813;52.016;8.714;2022-10-16T09:16:01;6.83;;;1.83;;
3597;SDS011;1813;52.016;8.714;2022-10-16T09:18:48;2.20;;;1.63;;
3597;SDS011;1813;52.016;8.714;2022-10-16T09:21:28;3.70;;;1.80;;
3597;SDS011;1813;52.016;8.714;2022-10-16T09:24:07;2.80;;;1.67;;
3597;SDS011;1813;52.016;8.714;2022-10-16T09:26:46;4.30;;;1.90;;
3597;SDS011;1813;52.016;8.714;2022-10-16T09:29:19;2.90;;;1.70;;
3597;SDS011;1813;52.016;8.714;2022-10-16T09:31:56;3.00;;;1.63;;
3597;SDS011;1813;52.016;8.714;2022-10-16T09:34:41;2.57;;;1.63;;
3597;SDS011;1813;52.016;8.714;2022-10-16T09:37:17;2.97;;;1.70;;
3597;SDS011;1813;52.016;8.714;2022-10-16T09:39:52;3.40;;;1.50;;
3597;SDS011;1813;52.016;8.714;2022-10-16T09:42:27;2.10;;;1.50;;
3597;SDS011;1813;52.016;8.714;2022-10-16T09:45:03;4.23;;;1.73;;
3597;SDS011;1813;52.016;8.714;2022-10-16T09:47:37;2.03;;;1.50;;
3597;SDS011;1813;52.016;8.714;2022-10-16T09:50:20;4.03;;;1.47;;
3597;SDS011;1813;52.016;8.714;2022-10-16T09:53:04;2.03;;;1.30;;
3597;SDS011;1813;52.016;8.714;2022-10-16T09:55:47;2.60;;;1.50;;
3597;SDS011;1813;52.016;8.714;2022-10-16T09:58:22;2.77;;;1.60;;
3597;SDS011;1813;52.016;8.714;2022-10-16T10:00:55;4.00;;;1.57;;
3597;SDS011;1813;52.016;8.714;2022-10-16T10:03:32;1.63;;;1.47;;
3597;SDS011;1813;52.016;8.714;2022-10-16T10:06:15;5.83;;;2.00;;
3597;SDS011;1813;52.016;8.714;2022-10-16T10:11:48;4.00;;;1.30;;
3597;SDS011;1813;52.016;8.714;2022-10-16T10:14:24;1.80;;;1.20;;
3597;SDS011;1813;52.016;8.714;2022-10-16T10:17:10;4.50;;;1.40;;
3597;SDS011;1813;52.016;8.714;2022-10-16T10:19:53;1.67;;;1.23;;
3597;SDS011;1813;52.016;8.714;2022-10-16T10:22:30;1.23;;;1.10;;
3597;SDS011;1813;52.016;8.714;2022-10-16T10:25:15;5.97;;;1.53;;
3597;SDS011;1813;52.016;8.714;2022-10-16T10:28:04;3.63;;;1.20;;
3597;SDS011;1813;52.016;8.714;2022-10-16T10:30:50;2.70;;;1.30;;
3597;SDS011;1813;52.016;8.714;2022-10-16T10:33:29;2.43;;;1.20;;
3597;SDS011;1813;52.016;8.714;2022-10-16T10:36:12;2.70;;;1.20;;
3597;SDS011;1813;52.016;8.714;2022-10-16T10:38:52;2.67;;;1.23;;
3597;SDS011;1813;52.016;8.714;2022-10-16T10:47:55;1.60;;;1.30;;
3597;SDS011;1813;52.016;8.714;2022-10-16T10:50:37;1.90;;;1.20;;
3597;SDS011;1813;52.016;8.714;2022-10-16T10:53:24;1.97;;;1.20;;
3597;SDS011;1813;52.016;8.714;2022-10-16T10:56:10;2.27;;;1.23;;
3597;SDS011;1813;52.016;8.714;2022-10-16T10:58:58;2.70;;;1.50;;
3597;SDS011;1813;52.016;8.714;2022-10-16T11:01:41;4.20;;;1.30;;
3597;SDS011;1813;52.016;8.714;2022-10-16T11:04:36;2.40;;;1.20;;
3597;SDS011;1813;52.016;8.714;2022-10-16T11:07:27;3.33;;;1.00;;
3597;SDS011;1813;52.016;8.714;2022-10-16T11:10:05;1.40;;;1.20;;
3597;SDS011;1813;52.016;8.714;2022-10-16T11:12:45;2.87;;;1.20;;
3597;SDS011;1813;52.016;8.714;2022-10-16T11:15:23;3.47;;;1.40;;
3597;SDS011;1813;52.016;8.714;2022-10-16T11:18:01;1.20;;;1.10;;
3597;SDS011;1813;52.016;8.714;2022-10-16T11:20:39;6.60;;;1.07;;
3597;SDS011;1813;52.016;8.714;2022-10-16T11:23:15;2.13;;;1.20;;
3597;SDS011;1813;52.016;8.714;2022-10-16T11:25:52;2.73;;;1.33;;
3597;SDS011;1813;52.016;8.714;2022-10-16T11:28:27;1.87;;;1.20;;
3597;SDS011;1813;52.016;8.714;2022-10-16T11:31:05;2.70;;;1.40;;
3597;SDS011;1813;52.016;8.714;2022-10-16T11:33:44;3.20;;;1.20;;
3597;SDS011;1813;52.016;8.714;2022-10-16T11:36:22;1.97;;;1.10;;
3597;SDS011;1813;52.016;8.714;2022-10-16T11:38:58;3.57;;;1.27;;
3597;SDS011;1813;52.016;8.714;2022-10-16T11:41:35;3.13;;;1.43;;
3597;SDS011;1813;52.016;8.714;2022-10-16T11:44:12;4.70;;;1.20;;
3597;SDS011;1813;52.016;8.714;2022-10-16T11:46:51;1.50;;;1.10;;
3597;SDS011;1813;52.016;8.714;2022-10-16T11:49:30;6.07;;;1.40;;
3597;SDS011;1813;52.016;8.714;2022-10-16T11:52:07;2.30;;;1.13;;
3597;SDS011;1813;52.016;8.714;2022-10-16T11:54:48;1.97;;;1.23;;
3597;SDS011;1813;52.016;8.714;2022-10-16T11:57:26;1.37;;;1.20;;
3597;SDS011;1813;52.016;8.714;2022-10-16T12:00:01;3.93;;;1.30;;
3597;SDS011;1813;52.016;8.714;2022-10-16T12:02:46;4.30;;;1.30;;
3597;SDS011;1813;52.016;8.714;2022-10-16T12:05:28;2.30;;;1.40;;
3597;SDS011;1813;52.016;8.714;2022-10-16T12:08:10;4.30;;;1.20;;
3597;SDS011;1813;52.016;8.714;2022-10-16T12:10:44;2.57;;;1.50;;
3597;SDS011;1813;52.016;8.714;2022-10-16T12:16:20;2.70;;;1.13;;
3597;SDS011;1813;52.016;8.714;2022-10-16T12:19:02;3.10;;;1.20;;
3597;SDS011;1813;52.016;8.714;2022-10-16T12:21:42;3.50;;;1.37;;
3597;SDS011;1813;52.016;8.714;2022-10-16T12:24:26;3.93;;;1.43;;
3597;SDS011;1813;52.016;8.714;2022-10-16T12:27:03;5.30;;;1.50;;
3597;SDS011;1813;52.016;8.714;2022-10-16T12:29:37;2.63;;;1.53;;
3597;SDS011;1813;52.016;8.714;2022-10-16T12:32:22;3.13;;;1.30;;
3597;SDS011;1813;52.016;8.714;2022-10-16T12:34:59;4.20;;;1.40;;
3597;SDS011;1813;52.016;8.714;2022-10-16T12:37:33;2.30;;;1.20;;
3597;SDS011;1813;52.016;8.714;2022-10-16T12:40:12;1.97;;;1.27;;
3597;SDS011;1813;52.016;8.714;2022-10-16T12:42:46;4.17;;;1.20;;
3597;SDS011;1813;52.016;8.714;2022-10-16T12:45:26;3.23;;;1.20;;
3597;SDS011;1813;52.016;8.714;2022-10-16T12:48:02;3.47;;;1.30;;
3597;SDS011;1813;52.016;8.714;2022-10-16T12:50:49;2.03;;;1.30;;
3597;SDS011;1813;52.016;8.714;2022-10-16T12:53:22;2.30;;;1.13;;
3597;SDS011;1813;52.016;8.714;2022-10-16T12:56:01;2.63;;;1.27;;
3597;SDS011;1813;52.016;8.714;2022-10-16T12:58:44;2.70;;;1.10;;
3597;SDS011;1813;52.016;8.714;2022-10-16T13:01:28;2.40;;;1.30;;
3597;SDS011;1813;52.016;8.714;2022-10-16T13:04:15;1.63;;;1.20;;
3597;SDS011;1813;52.016;8.714;2022-10-16T13:07:28;2.80;;;1.30;;
3597;SDS011;1813;52.016;8.714;2022-10-16T13:10:15;2.63;;;1.20;;
3597;SDS011;1813;52.016;8.714;2022-10-16T13:13:02;2.00;;;1.10;;
3597;SDS011;1813;52.016;8.714;2022-10-16T13:15:52;1.83;;;1.10;;
3597;SDS011;1813;52.016;8.714;2022-10-16T13:18:37;2.70;;;1.30;;
3597;SDS011;1813;52.016;8.714;2022-10-16T13:21:25;4.60;;;1.50;;
3597;SDS011;1813;52.016;8.714;2022-10-16T13:24:07;1.70;;;1.40;;
3597;SDS011;1813;52.016;8.714;2022-10-16T13:26:49;2.23;;;1.33;;
3597;SDS011;1813;52.016;8.714;2022-10-16T13:29:30;1.70;;;1.20;;
3597;SDS011;1813;52.016;8.714;2022-10-16T13:32:06;2.97;;;1.30;;
3597;SDS011;1813;52.016;8.714;2022-10-16T13:34:43;7.73;;;1.20;;
3597;SDS011;1813;52.016;8.714;2022-10-16T13:37:17;5.10;;;1.20;;
3597;SDS011;1813;52.016;8.714;2022-10-16T13:39:50;5.43;;;1.37;;
3597;SDS011;1813;52.016;8.714;2022-10-16T13:42:23;6.47;;;1.43;;
3597;SDS011;1813;52.016;8.714;2022-10-16T13:44:59;1.80;;;1.20;;
3597;SDS011;1813;52.016;8.714;2022-10-16T13:47:31;4.30;;;1.27;;
3597;SDS011;1813;52.016;8.714;2022-10-16T13:50:05;2.00;;;1.23;;
3597;SDS011;1813;52.016;8.714;2022-10-16T13:52:40;6.80;;;1.27;;
3597;SDS011;1813;52.016;8.714;2022-10-16T13:55:12;2.23;;;1.50;;
3597;SDS011;1813;52.016;8.714;2022-10-16T13:57:46;3.50;;;1.47;;
3597;SDS011;1813;52.016;8.714;2022-10-16T14:00:20;1.83;;;1.33;;
3597;SDS011;1813;52.016;8.714;2022-10-16T14:02:55;9.13;;;1.60;;
3597;SDS011;1813;52.016;8.714;2022-10-16T14:05:32;2.30;;;1.40;;
3597;SDS011;1813;52.016;8.714;2022-10-16T14:08:04;3.83;;;2.03;;
3597;SDS011;1813;52.016;8.714;2022-10-16T14:10:36;4.53;;;1.40;;
3597;SDS011;1813;52.016;8.714;2022-10-16T14:13:12;2.00;;;1.20;;
3597;SDS011;1813;52.016;8.714;2022-10-16T14:15:51;1.57;;;1.30;;
3597;SDS011;1813;52.016;8.714;2022-10-16T14:18:24;7.03;;;1.20;;
3597;SDS011;1813;52.016;8.714;2022-10-16T14:21:02;2.30;;;1.30;;
3597;SDS011;1813;52.016;8.714;2022-10-16T14:23:36;3.97;;;1.40;;
3597;SDS011;1813;52.016;8.714;2022-10-16T14:26:14;7.80;;;1.60;;
3597;SDS011;1813;52.016;8.714;2022-10-16T14:28:48;6.30;;;1.60;;
3597;SDS011;1813;52.016;8.714;2022-10-16T14:31:33;1.40;;;1.30;;
3597;SDS011;1813;52.016;8.714;2022-10-16T14:36:58;4.13;;;1.50;;
3597;SDS011;1813;52.016;8.714;2022-10-16T14:39:37;2.27;;;1.17;;
3597;SDS011;1813;52.016;8.714;2022-10-16T14:42:11;3.43;;;1.40;;
3597;SDS011;1813;52.016;8.714;2022-10-16T14:44:47;1.97;;;1.40;;
3597;SDS011;1813;52.016;8.714;2022-10-16T14:47:24;1.93;;;1.40;;
3597;SDS011;1813;52.016;8.714;2022-10-16T14:49:58;4.47;;;1.60;;
3597;SDS011;1813;52.016;8.714;2022-10-16T14:52:30;1.77;;;1.20;;
3597;SDS011;1813;52.016;8.714;2022-10-16T14:55:01;3.97;;;1.73;;
3597;SDS011;1813;52.016;8.714;2022-10-16T14:57:34;2.13;;;1.30;;
3597;SDS011;1813;52.016;8.714;2022-10-16T15:00:10;1.50;;;1.20;;
3597;SDS011;1813;52.016;8.714;2022-10-16T15:02:49;4.27;;;1.50;;
3597;SDS011;1813;52.016;8.714;2022-10-16T15:05:23;5.60;;;1.30;;
3597;SDS011;1813;52.016;8.714;2022-10-16T15:07:56;2.90;;;1.20;;
3597;SDS011;1813;52.016;8.714;2022-10-16T15:10:28;2.03;;;1.33;;
3597;SDS011;1813;52.016;8.714;2022-10-16T15:13:03;6.73;;;1.30;;
3597;SDS011;1813;52.016;8.714;2022-10-16T15:15:37;5.17;;;1.50;;
3597;SDS011;1813;52.016;8.714;2022-10-16T15:18:15;2.27;;;1.27;;
3597;SDS011;1813;52.016;8.714;2022-10-16T15:20:50;3.50;;;1.57;;
3597;SDS011;1813;52.016;8.714;2022-10-16T15:23:22;1.43;;;1.23;;
3597;SDS011;1813;52.016;8.714;2022-10-16T15:25:55;4.07;;;1.30;;
3597;SDS011;1813;52.016;8.714;2022-10-16T15:28:28;2.30;;;1.20;;
3597;SDS011;1813;52.016;8.714;2022-10-16T15:31:00;6.27;;;1.20;;
3597;SDS011;1813;52.016;8.714;2022-10-16T15:33:33;2.80;;;1.20;;
3597;SDS011;1813;52.016;8.714;2022-10-16T15:36:06;2.90;;;1.23;;
3597;SDS011;1813;52.016;8.714;2022-10-16T15:38:38;1.57;;;1.20;;
3597;SDS011;1813;52.016;8.714;2022-10-16T15:41:11;2.60;;;1.20;;
3597;SDS011;1813;52.016;8.714;2022-10-16T15:43:43;3.20;;;1.27;;
3597;SDS011;1813;52.016;8.714;2022-10-16T15:46:17;1.63;;;1.10;;
3597;SDS011;1813;52.016;8.714;2022-10-16T15:48:52;5.47;;;1.50;;
3597;SDS011;1813;52.016;8.714;2022-10-16T15:51:28;2.47;;;1.40;;
3597;SDS011;1813;52.016;8.714;2022-10-16T15:54:03;9.60;;;1.30;;
3597;SDS011;1813;52.016;8.714;2022-10-16T15:56:35;4.60;;;1.37;;
3597;SDS011;1813;52.016;8.714;2022-10-16T15:59:07;2.30;;;1.57;;
3597;SDS011;1813;52.016;8.714;2022-10-16T16:01:39;2.80;;;1.50;;
3597;SDS011;1813;52.016;8.714;2022-10-16T16:04:13;6.30;;;1.60;;
3597;SDS011;1813;52.016;8.714;2022-10-16T16:06:45;3.33;;;1.43;;
3597;SDS011;1813;52.016;8.714;2022-10-16T16:09:17;5.43;;;1.43;;
3597;SDS011;1813;52.016;8.714;2022-10-16T16:11:50;2.40;;;1.60;;
3597;SDS011;1813;52.016;8.714;2022-10-16T16:14:22;4.70;;;1.40;;
3597;SDS011;1813;52.016;8.714;2022-10-16T16:16:56;3.50;;;1.67;;
3597;SDS011;1813;52.016;8.714;2022-10-16T16:19:30;4.53;;;1.60;;